Time;durP1;ratioP1;P1;durP2;ratioP2;P2;SDS_P1;SDS_P2;PMS_P1;PMS_P2;Temp;Humidity;BMP_temperature;BMP_pressure;BME280_temperature;BME280_humidity;BME280_pressure;Samples;Min_cycle;Max_cycle;Signal;HPM_P1;HPM_P2
2022/06/15 00:00:01;;;;;;;2.00;1.40;;;;;;;;;;5161255;27;20734;-63
2022/06/15 00:02:49;;;;;;;1.70;1.20;;;;;;;;;;5156243;27;20201;-63
2022/06/15 00:05:36;;;;;;;1.30;1.20;;;;;;;;;;5157675;27;20556;-63
2022/06/15 00:08:23;;;;;;;1.87;1.40;;;;;;;;;;5155881;27;20656;-63
2022/06/15 00:11:13;;;;;;;1.60;1.30;;;;;;;;;;5156965;27;20299;-63
2022/06/15 00:14:01;;;;;;;2.00;1.20;;;;;;;;;;5154421;27;20600;-63
2022/06/15 00:16:49;;;;;;;1.00;0.97;;;;;;;;;;5155179;27;20583;-63
2022/06/15 00:19:37;;;;;;;1.43;1.10;;;;;;;;;;5158640;27;20211;-63
2022/06/15 00:22:24;;;;;;;1.20;1.10;;;;;;;;;;5154460;27;20305;-63
2022/06/15 00:25:13;;;;;;;1.20;1.10;;;;;;;;;;5160799;27;20198;-63
2022/06/15 00:28:00;;;;;;;1.60;1.17;;;;;;;;;;5155946;27;20253;-63
2022/06/15 00:30:49;;;;;;;1.23;1.20;;;;;;;;;;5155664;27;20213;-63
2022/06/15 00:33:36;;;;;;;0.83;0.83;;;;;;;;;;5152743;27;20201;-63
2022/06/15 00:36:25;;;;;;;1.70;1.20;;;;;;;;;;5133223;27;20233;-63
2022/06/15 00:39:12;;;;;;;0.90;0.90;;;;;;;;;;5136300;27;20213;-63
2022/06/15 00:41:59;;;;;;;1.30;1.00;;;;;;;;;;5136803;27;20218;-63
2022/06/15 00:44:45;;;;;;;1.00;0.97;;;;;;;;;;5138879;27;20211;-63
2022/06/15 00:47:35;;;;;;;1.10;1.00;;;;;;;;;;5136400;27;20210;-63
2022/06/15 00:50:25;;;;;;;1.23;1.00;;;;;;;;;;5135556;27;20656;-63
2022/06/15 00:53:14;;;;;;;1.20;1.10;;;;;;;;;;5134597;27;20669;-63
2022/06/15 00:56:01;;;;;;;1.00;1.00;;;;;;;;;;5137858;27;20230;-62
2022/06/15 00:58:51;;;;;;;1.20;1.10;;;;;;;;;;5136335;27;20214;-63
2022/06/15 01:01:39;;;;;;;1.50;1.10;;;;;;;;;;5136702;27;20619;-59
2022/06/15 01:04:31;;;;;;;1.30;1.20;;;;;;;;;;5134139;27;20206;-71
2022/06/15 01:07:32;;;;;;;1.20;1.10;;;;;;;;;;5137643;27;20579;-59
2022/06/15 01:10:29;;;;;;;1.30;1.20;;;;;;;;;;5135097;27;20197;-58
2022/06/15 01:13:34;;;;;;;1.17;1.07;;;;;;;;;;5135854;27;20618;-58
2022/06/15 01:16:31;;;;;;;2.30;0.90;;;;;;;;;;5137952;27;20309;-59
2022/06/15 01:19:53;;;;;;;1.47;1.10;;;;;;;;;;5136745;27;20666;-59
2022/06/15 01:23:01;;;;;;;1.23;1.13;;;;;;;;;;5139234;27;20262;-59
2022/06/15 01:25:59;;;;;;;1.23;1.13;;;;;;;;;;5132657;27;20206;-59
2022/06/15 01:28:49;;;;;;;1.07;1.03;;;;;;;;;;5137004;27;20203;-58
2022/06/15 01:31:42;;;;;;;1.30;1.20;;;;;;;;;;5138720;27;20207;-59
2022/06/15 01:34:38;;;;;;;1.17;1.07;;;;;;;;;;5137700;27;20245;-58
2022/06/15 01:37:33;;;;;;;1.23;1.17;;;;;;;;;;5164666;27;20376;-59
2022/06/15 01:40:26;;;;;;;2.00;1.10;;;;;;;;;;5162934;27;20248;-58
2022/06/15 01:43:19;;;;;;;1.23;1.00;;;;;;;;;;5156344;27;20203;-59
2022/06/15 01:46:07;;;;;;;1.77;1.30;;;;;;;;;;5161060;27;20197;-59
2022/06/15 01:48:57;;;;;;;0.90;0.90;;;;;;;;;;5157821;27;20201;-59
2022/06/15 01:51:45;;;;;;;1.37;1.10;;;;;;;;;;5159592;27;20606;-59
2022/06/15 01:54:36;;;;;;;1.67;1.10;;;;;;;;;;5158999;27;20293;-58
2022/06/15 01:57:24;;;;;;;1.40;1.20;;;;;;;;;;5165355;27;20610;-59
2022/06/15 02:00:16;;;;;;;0.80;0.80;;;;;;;;;;5156928;27;20284;-59
2022/06/15 02:03:10;;;;;;;1.10;1.00;;;;;;;;;;5158383;27;20206;-59
2022/06/15 02:06:03;;;;;;;1.03;1.00;;;;;;;;;;5156592;27;20574;-59
2022/06/15 02:08:57;;;;;;;1.10;1.00;;;;;;;;;;5155552;27;20634;-59
2022/06/15 02:11:44;;;;;;;1.33;1.23;;;;;;;;;;5154855;27;20682;-58
2022/06/15 02:14:36;;;;;;;1.27;1.17;;;;;;;;;;5157645;27;20220;-59
2022/06/15 02:17:27;;;;;;;1.43;1.17;;;;;;;;;;5157504;27;20216;-58
2022/06/15 02:20:19;;;;;;;1.33;1.23;;;;;;;;;;5157269;27;20212;-59
2022/06/15 02:23:10;;;;;;;1.20;1.10;;;;;;;;;;5158608;27;20281;-59
2022/06/15 02:25:58;;;;;;;1.27;1.20;;;;;;;;;;5159790;27;20202;-58
2022/06/15 02:28:48;;;;;;;1.93;1.13;;;;;;;;;;5160391;27;20216;-58
2022/06/15 02:31:37;;;;;;;1.20;0.90;;;;;;;;;;5156370;27;20286;-59
2022/06/15 02:34:24;;;;;;;1.80;1.17;;;;;;;;;;5159034;27;20245;-58
2022/06/15 02:37:12;;;;;;;0.80;0.80;;;;;;;;;;5169149;27;20224;-59
2022/06/15 02:40:00;;;;;;;1.27;1.10;;;;;;;;;;5164979;27;20208;-59
2022/06/15 02:42:48;;;;;;;1.13;1.03;;;;;;;;;;5167216;27;20229;-58
2022/06/15 02:45:39;;;;;;;1.40;1.30;;;;;;;;;;5161354;27;20198;-60
2022/06/15 02:48:26;;;;;;;2.43;1.17;;;;;;;;;;5163654;27;20210;-59
2022/06/15 02:51:18;;;;;;;1.20;1.10;;;;;;;;;;5159181;27;20210;-59
2022/06/15 02:54:08;;;;;;;1.10;1.00;;;;;;;;;;5158789;27;20573;-59
2022/06/15 02:56:57;;;;;;;1.03;1.03;;;;;;;;;;5157052;27;20225;-59
2022/06/15 02:59:45;;;;;;;1.17;1.07;;;;;;;;;;5159612;27;20208;-59
2022/06/15 03:02:32;;;;;;;1.40;1.30;;;;;;;;;;5160133;27;20285;-59
2022/06/15 03:05:19;;;;;;;1.10;1.00;;;;;;;;;;5162674;27;20202;-58
2022/06/15 03:08:06;;;;;;;1.33;1.23;;;;;;;;;;5159016;27;20191;-58
2022/06/15 03:10:55;;;;;;;1.50;1.40;;;;;;;;;;5158996;27;20198;-58
2022/06/15 03:13:43;;;;;;;1.30;1.20;;;;;;;;;;5164615;27;20455;-59
2022/06/15 03:16:30;;;;;;;1.07;1.00;;;;;;;;;;5163348;27;20277;-59
2022/06/15 03:19:17;;;;;;;1.03;0.93;;;;;;;;;;5160832;27;20233;-59
2022/06/15 03:22:04;;;;;;;1.20;1.10;;;;;;;;;;5158421;27;20338;-59
2022/06/15 03:24:51;;;;;;;2.10;1.20;;;;;;;;;;5163702;27;20271;-59
2022/06/15 03:27:38;;;;;;;1.40;1.10;;;;;;;;;;5157965;27;20203;-58
2022/06/15 03:30:27;;;;;;;1.20;1.10;;;;;;;;;;5155894;27;20209;-59
2022/06/15 03:33:14;;;;;;;1.50;1.17;;;;;;;;;;5160697;27;20201;-59
2022/06/15 03:36:01;;;;;;;1.27;1.17;;;;;;;;;;5159725;27;20240;-59
2022/06/15 03:38:48;;;;;;;1.13;1.03;;;;;;;;;;5160703;27;20221;-58
2022/06/15 03:41:35;;;;;;;2.07;1.13;;;;;;;;;;5164732;27;20273;-58
2022/06/15 03:44:22;;;;;;;1.27;1.03;;;;;;;;;;5154808;27;20577;-58
2022/06/15 03:47:11;;;;;;;1.13;1.03;;;;;;;;;;5157200;27;20193;-59
2022/06/15 03:49:58;;;;;;;1.20;1.10;;;;;;;;;;5159923;27;20328;-59
2022/06/15 03:52:45;;;;;;;1.27;1.17;;;;;;;;;;5161061;27;20208;-59
2022/06/15 03:55:34;;;;;;;1.67;1.23;;;;;;;;;;5158729;27;20566;-59
2022/06/15 03:58:21;;;;;;;1.70;1.40;;;;;;;;;;5156561;27;20243;-59
2022/06/15 04:01:08;;;;;;;1.07;0.97;;;;;;;;;;5163606;27;20589;-59
2022/06/15 04:03:57;;;;;;;1.27;1.17;;;;;;;;;;5154622;27;20210;-59
2022/06/15 04:06:45;;;;;;;1.03;0.90;;;;;;;;;;5156095;27;20829;-60
2022/06/15 04:09:31;;;;;;;1.13;1.03;;;;;;;;;;5157250;27;20566;-60
2022/06/15 04:12:18;;;;;;;1.90;1.00;;;;;;;;;;5155463;27;20201;-59
2022/06/15 04:15:06;;;;;;;0.90;0.90;;;;;;;;;;5156836;27;20205;-59
2022/06/15 04:17:53;;;;;;;1.50;1.20;;;;;;;;;;5158687;27;20219;-59
2022/06/15 04:20:42;;;;;;;1.37;1.27;;;;;;;;;;5156439;27;20206;-59
2022/06/15 04:23:29;;;;;;;1.43;1.10;;;;;;;;;;5156887;27;20282;-59
2022/06/15 04:26:16;;;;;;;1.17;1.07;;;;;;;;;;5156980;27;20205;-59
2022/06/15 04:29:03;;;;;;;0.90;0.90;;;;;;;;;;5158411;27;20575;-58
2022/06/15 04:31:50;;;;;;;1.30;1.00;;;;;;;;;;5158393;27;20264;-59
2022/06/15 04:34:36;;;;;;;0.93;0.90;;;;;;;;;;5163694;27;20243;-59
2022/06/15 04:37:25;;;;;;;1.23;1.13;;;;;;;;;;5158491;27;20218;-58
2022/06/15 04:40:13;;;;;;;1.63;1.10;;;;;;;;;;5162415;27;20266;-58
2022/06/15 04:43:00;;;;;;;1.50;1.40;;;;;;;;;;5155214;27;20230;-59
2022/06/15 04:45:47;;;;;;;1.10;1.03;;;;;;;;;;5160794;27;20264;-60
2022/06/15 04:48:34;;;;;;;1.20;1.00;;;;;;;;;;5161236;27;20568;-59
2022/06/15 04:51:23;;;;;;;1.87;1.23;;;;;;;;;;5156684;27;20222;-59
2022/06/15 04:54:12;;;;;;;1.13;1.03;;;;;;;;;;5158351;27;20202;-59
2022/06/15 04:56:59;;;;;;;1.80;1.03;;;;;;;;;;5155630;27;20665;-58
2022/06/15 04:59:46;;;;;;;1.43;1.13;;;;;;;;;;5159192;27;20249;-59
2022/06/15 05:02:33;;;;;;;1.03;1.00;;;;;;;;;;5156648;27;20502;-59
2022/06/15 05:05:20;;;;;;;1.90;1.33;;;;;;;;;;5155152;27;20614;-59
2022/06/15 05:08:08;;;;;;;1.13;1.00;;;;;;;;;;5156923;27;20211;-59
2022/06/15 05:10:58;;;;;;;1.40;1.27;;;;;;;;;;5158120;27;20251;-58
2022/06/15 05:13:45;;;;;;;1.40;1.20;;;;;;;;;;5157540;27;20213;-58
2022/06/15 05:16:32;;;;;;;1.10;1.10;;;;;;;;;;5157827;27;20210;-58
2022/06/15 05:19:19;;;;;;;1.20;1.10;;;;;;;;;;5159294;27;20210;-59
2022/06/15 05:22:06;;;;;;;0.90;0.90;;;;;;;;;;5158235;27;20207;-59
2022/06/15 05:24:53;;;;;;;1.30;1.10;;;;;;;;;;5158993;27;20207;-65
2022/06/15 05:27:41;;;;;;;1.33;1.23;;;;;;;;;;5162151;27;20560;-63
2022/06/15 05:30:28;;;;;;;1.07;1.00;;;;;;;;;;5155032;27;20616;-59
2022/06/15 05:33:15;;;;;;;1.57;1.10;;;;;;;;;;5152025;27;20247;-59
2022/06/15 05:36:04;;;;;;;1.37;1.20;;;;;;;;;;5157181;27;20230;-59
2022/06/15 05:38:50;;;;;;;1.20;1.10;;;;;;;;;;5156340;27;20218;-59
2022/06/15 05:41:37;;;;;;;1.70;1.13;;;;;;;;;;5159594;27;20214;-58
2022/06/15 05:44:30;;;;;;;1.23;1.13;;;;;;;;;;5158684;27;20771;-58
2022/06/15 05:47:17;;;;;;;1.50;1.00;;;;;;;;;;5162141;27;20690;-59
2022/06/15 05:50:04;;;;;;;1.43;1.30;;;;;;;;;;5157847;27;20218;-59
2022/06/15 05:52:51;;;;;;;1.10;1.00;;;;;;;;;;5152253;27;20204;-59
2022/06/15 05:55:38;;;;;;;1.40;0.90;;;;;;;;;;5158099;27;20229;-59
2022/06/15 05:58:25;;;;;;;1.23;1.00;;;;;;;;;;5159433;27;20599;-59
2022/06/15 06:01:19;;;;;;;1.43;1.23;;;;;;;;;;5155558;27;20225;-59
2022/06/15 06:04:08;;;;;;;1.83;1.10;;;;;;;;;;5160429;27;20266;-59
2022/06/15 06:06:55;;;;;;;1.93;1.30;;;;;;;;;;5159386;27;20210;-58
2022/06/15 06:09:42;;;;;;;1.77;1.13;;;;;;;;;;5160050;27;20203;-58
2022/06/15 06:12:29;;;;;;;1.13;1.07;;;;;;;;;;5159820;27;20211;-59
2022/06/15 06:15:16;;;;;;;1.30;1.20;;;;;;;;;;5160449;27;20193;-59
2022/06/15 06:18:04;;;;;;;1.20;0.90;;;;;;;;;;5166874;27;20258;-58
2022/06/15 06:20:52;;;;;;;1.20;1.10;;;;;;;;;;5159971;27;20206;-59
2022/06/15 06:23:39;;;;;;;2.40;1.13;;;;;;;;;;5161349;27;20215;-59
2022/06/15 06:26:28;;;;;;;1.60;1.17;;;;;;;;;;5169979;27;20245;-59
2022/06/15 06:29:16;;;;;;;1.30;1.00;;;;;;;;;;5161814;27;20565;-59
2022/06/15 06:32:04;;;;;;;1.13;1.00;;;;;;;;;;5156929;27;20293;-60
2022/06/15 06:34:55;;;;;;;1.47;1.37;;;;;;;;;;5160646;27;21026;-60
2022/06/15 06:37:43;;;;;;;1.30;1.20;;;;;;;;;;5161151;27;20563;-58
2022/06/15 06:40:30;;;;;;;1.00;1.00;;;;;;;;;;5162796;27;20223;-59
2022/06/15 06:43:16;;;;;;;1.27;1.10;;;;;;;;;;5163496;27;20200;-58
2022/06/15 06:46:05;;;;;;;1.30;1.20;;;;;;;;;;5159269;27;20239;-60
2022/06/15 06:48:52;;;;;;;1.23;1.07;;;;;;;;;;5160670;27;20260;-59
2022/06/15 06:51:44;;;;;;;0.90;0.90;;;;;;;;;;5158946;27;20201;-59
2022/06/15 06:54:31;;;;;;;1.50;1.20;;;;;;;;;;5159102;27;20257;-59
2022/06/15 06:57:18;;;;;;;1.00;0.80;;;;;;;;;;5165544;27;20266;-59
2022/06/15 07:00:07;;;;;;;1.20;1.10;;;;;;;;;;5158020;27;20196;-59
2022/06/15 07:02:54;;;;;;;1.60;1.20;;;;;;;;;;5165018;27;20195;-59
2022/06/15 07:05:41;;;;;;;1.50;1.27;;;;;;;;;;5161713;27;20527;-59
2022/06/15 07:08:29;;;;;;;1.23;1.13;;;;;;;;;;5158407;27;20564;-59
2022/06/15 07:11:17;;;;;;;0.80;0.80;;;;;;;;;;5167176;27;20204;-59
2022/06/15 07:14:05;;;;;;;1.10;1.00;;;;;;;;;;5159020;27;20287;-60
2022/06/15 07:16:52;;;;;;;1.20;1.10;;;;;;;;;;5158421;27;20239;-60
2022/06/15 07:19:38;;;;;;;0.80;0.80;;;;;;;;;;5158104;27;20323;-59
2022/06/15 07:22:25;;;;;;;1.20;1.07;;;;;;;;;;5160063;27;20208;-58
2022/06/15 07:25:14;;;;;;;0.80;0.80;;;;;;;;;;5164805;27;20199;-58
2022/06/15 07:28:02;;;;;;;1.65;1.08;;;;;;;;;;5161205;27;20200;-56
2022/06/15 07:30:49;;;;;;;1.20;1.10;;;;;;;;;;5167185;27;20581;-56
2022/06/15 07:33:38;;;;;;;1.85;1.02;;;;;;;;;;5162465;27;20731;-56
2022/06/15 07:36:25;;;;;;;1.13;0.90;;;;;;;;;;5160016;27;20243;-57
2022/06/15 07:39:13;;;;;;;1.17;0.90;;;;;;;;;;5163240;27;20223;-56
2022/06/15 07:42:03;;;;;;;1.77;1.10;;;;;;;;;;5158682;27;20285;-57
2022/06/15 07:44:52;;;;;;;1.17;1.08;;;;;;;;;;5160696;27;20219;-56
2022/06/15 07:50:45;;;;;;;0.75;0.75;;;;;;;;;;5158992;27;20207;-58
2022/06/15 07:53:32;;;;;;;1.50;1.15;;;;;;;;;;5156862;27;20690;-58
2022/06/15 07:56:19;;;;;;;0.95;0.90;;;;;;;;;;5159144;27;20796;-56
2022/06/15 07:59:07;;;;;;;0.90;0.90;;;;;;;;;;5165288;27;20310;-56
2022/06/15 08:01:54;;;;;;;0.90;0.90;;;;;;;;;;5159032;27;20688;-57
2022/06/15 08:04:42;;;;;;;1.25;0.90;;;;;;;;;;5157535;27;20200;-56
2022/06/15 08:07:30;;;;;;;1.13;0.88;;;;;;;;;;5157563;27;20200;-57
2022/06/15 08:10:20;;;;;;;1.98;1.02;;;;;;;;;;5161888;27;20208;-56
2022/06/15 08:13:08;;;;;;;0.85;0.85;;;;;;;;;;5159686;27;20197;-57
2022/06/15 08:15:57;;;;;;;1.48;1.30;;;;;;;;;;5158592;27;20207;-57
2022/06/15 08:18:47;;;;;;;2.25;0.90;;;;;;;;;;5155519;27;20300;-57
2022/06/15 08:21:37;;;;;;;1.55;1.08;;;;;;;;;;5159047;27;20643;-55
2022/06/15 08:24:24;;;;;;;1.58;1.13;;;;;;;;;;5164902;27;20238;-55
2022/06/15 08:27:12;;;;;;;1.88;0.80;;;;;;;;;;5157560;27;20206;-59
2022/06/15 08:29:59;;;;;;;1.30;0.85;;;;;;;;;;5155251;27;20212;-57
2022/06/15 08:32:48;;;;;;;1.08;0.90;;;;;;;;;;5157173;27;20212;-57
2022/06/15 08:35:37;;;;;;;1.48;1.10;;;;;;;;;;5153486;27;20345;-58
2022/06/15 08:38:26;;;;;;;1.20;1.10;;;;;;;;;;5156845;27;20227;-56
2022/06/15 08:41:22;;;;;;;0.90;0.90;;;;;;;;;;5155267;27;20228;-59
2022/06/15 08:44:18;;;;;;;0.98;0.88;;;;;;;;;;5161430;27;20204;-57
2022/06/15 08:47:16;;;;;;;1.33;1.00;;;;;;;;;;5158814;27;20224;-58
2022/06/15 08:50:13;;;;;;;0.98;0.98;;;;;;;;;;5156344;27;20207;-57
2022/06/15 08:53:05;;;;;;;1.15;1.05;;;;;;;;;;5156509;27;20214;-58
2022/06/15 08:55:59;;;;;;;1.10;0.80;;;;;;;;;;5157862;27;20293;-57
2022/06/15 08:58:49;;;;;;;0.90;0.90;;;;;;;;;;5159740;27;20263;-58
2022/06/15 09:01:38;;;;;;;1.17;1.08;;;;;;;;;;5162129;27;20227;-58
2022/06/15 09:04:34;;;;;;;0.82;0.82;;;;;;;;;;5158612;27;20659;-57
2022/06/15 09:07:41;;;;;;;0.82;0.82;;;;;;;;;;5155549;27;20200;-58
2022/06/15 09:10:40;;;;;;;1.60;1.10;;;;;;;;;;5163199;27;20223;-58
2022/06/15 09:13:41;;;;;;;1.25;1.15;;;;;;;;;;5157490;27;20227;-58
2022/06/15 09:16:34;;;;;;;1.02;0.98;;;;;;;;;;5155698;27;20283;-57
2022/06/15 09:19:27;;;;;;;1.20;1.10;;;;;;;;;;5159978;27;21109;-58
2022/06/15 09:22:17;;;;;;;0.75;0.75;;;;;;;;;;5159181;27;20280;-58
2022/06/15 09:25:13;;;;;;;0.90;0.90;;;;;;;;;;5155765;27;20200;-57
2022/06/15 09:28:06;;;;;;;1.70;0.95;;;;;;;;;;5160154;27;20589;-60
2022/06/15 09:30:55;;;;;;;1.00;1.00;;;;;;;;;;5153606;27;20569;-57
2022/06/15 09:33:45;;;;;;;1.13;1.02;;;;;;;;;;5160717;27;20345;-57
2022/06/15 09:36:38;;;;;;;1.25;0.82;;;;;;;;;;5154044;27;20207;-58
2022/06/15 09:39:27;;;;;;;1.42;1.10;;;;;;;;;;5158120;27;20245;-57
2022/06/15 09:42:20;;;;;;;0.90;0.80;;;;;;;;;;5156944;27;20207;-58
2022/06/15 09:45:12;;;;;;;0.93;0.70;;;;;;;;;;5155030;27;20201;-58
2022/06/15 09:48:05;;;;;;;0.85;0.70;;;;;;;;;;5155168;27;20205;-57
2022/06/15 09:50:59;;;;;;;1.50;0.77;;;;;;;;;;5156961;27;20635;-58
2022/06/15 09:54:00;;;;;;;0.70;0.70;;;;;;;;;;5153790;27;20204;-57
2022/06/15 09:56:49;;;;;;;0.80;0.77;;;;;;;;;;5161416;27;20280;-58
2022/06/15 09:59:37;;;;;;;0.95;0.95;;;;;;;;;;5156679;27;20223;-58
2022/06/15 10:02:28;;;;;;;0.68;0.68;;;;;;;;;;5157536;27;20317;-57
2022/06/15 10:05:24;;;;;;;1.65;0.95;;;;;;;;;;5156988;27;20224;-57
2022/06/15 10:08:15;;;;;;;0.80;0.80;;;;;;;;;;5160790;27;20199;-57
2022/06/15 10:11:05;;;;;;;0.50;0.50;;;;;;;;;;5156473;27;20218;-57
2022/06/15 10:13:52;;;;;;;0.68;0.60;;;;;;;;;;5156662;27;20200;-58
2022/06/15 10:16:51;;;;;;;0.70;0.55;;;;;;;;;;5156206;27;20282;-58
2022/06/15 10:19:39;;;;;;;0.63;0.63;;;;;;;;;;5156477;27;20223;-57
2022/06/15 10:22:29;;;;;;;0.77;0.60;;;;;;;;;;5155260;27;20329;-58
2022/06/15 10:25:19;;;;;;;0.75;0.75;;;;;;;;;;5154544;27;20201;-57
2022/06/15 10:28:14;;;;;;;0.90;0.90;;;;;;;;;;5155900;27;20274;-57
2022/06/15 10:31:04;;;;;;;1.05;0.90;;;;;;;;;;5154054;27;20547;-56
2022/06/15 10:33:54;;;;;;;1.50;0.80;;;;;;;;;;5157108;27;21035;-58
2022/06/15 10:36:41;;;;;;;1.02;0.82;;;;;;;;;;5126188;27;20208;-57
2022/06/15 10:39:32;;;;;;;0.57;0.50;;;;;;;;;;5129188;27;20218;-57
2022/06/15 10:42:24;;;;;;;0.52;0.52;;;;;;;;;;5128000;27;20209;-57
2022/06/15 10:45:23;;;;;;;0.80;0.80;;;;;;;;;;5135913;27;20207;-57
2022/06/15 10:48:16;;;;;;;0.70;0.52;;;;;;;;;;5132101;27;20282;-57
2022/06/15 10:51:07;;;;;;;0.52;0.52;;;;;;;;;;5139086;27;20197;-57
2022/06/15 10:54:19;;;;;;;2.10;1.00;;;;;;;;;;5140774;27;20213;-57
2022/06/15 11:03:34;;;;;;;0.70;0.70;;;;;;;;;;5130007;27;20235;-57
2022/06/15 11:06:22;;;;;;;0.60;0.60;;;;;;;;;;5134607;27;20210;-57
2022/06/15 11:09:26;;;;;;;0.70;0.70;;;;;;;;;;5135701;27;20201;-58
2022/06/15 11:12:24;;;;;;;0.73;0.70;;;;;;;;;;5130769;27;20210;-57
2022/06/15 11:18:01;;;;;;;1.02;0.70;;;;;;;;;;5134252;27;20687;-59
2022/06/15 11:18:37;;;;;;;0.70;0.70;;;;;;;;;;5132514;27;20236;-57
2022/06/15 11:21:32;;;;;;;1.70;0.80;;;;;;;;;;5137708;27;20208;-57
2022/06/15 11:24:31;;;;;;;1.10;0.60;;;;;;;;;;5129989;27;20226;-58
2022/06/15 11:27:24;;;;;;;0.90;0.70;;;;;;;;;;5135064;27;20703;-56
2022/06/15 11:30:21;;;;;;;1.55;0.73;;;;;;;;;;5136170;27;20198;-58
2022/06/15 11:33:17;;;;;;;2.08;0.80;;;;;;;;;;5137564;27;20196;-57
2022/06/15 11:36:14;;;;;;;0.68;0.68;;;;;;;;;;5151822;27;20243;-57
2022/06/15 11:39:10;;;;;;;0.93;0.70;;;;;;;;;;5160695;27;20573;-57
2022/06/15 11:41:59;;;;;;;0.50;0.50;;;;;;;;;;5155848;27;20236;-57
2022/06/15 11:44:46;;;;;;;0.60;0.60;;;;;;;;;;5162581;27;20687;-57
2022/06/15 11:47:43;;;;;;;0.68;0.57;;;;;;;;;;5160602;27;20197;-57
2022/06/15 11:50:38;;;;;;;1.27;0.77;;;;;;;;;;5163482;27;20200;-57
2022/06/15 11:53:34;;;;;;;0.80;0.80;;;;;;;;;;5157141;27;20292;-58
2022/06/15 11:56:26;;;;;;;0.68;0.63;;;;;;;;;;5157893;27;20205;-57
2022/06/15 11:59:22;;;;;;;1.05;0.60;;;;;;;;;;5162659;27;20308;-58
2022/06/15 12:02:19;;;;;;;0.63;0.63;;;;;;;;;;5162129;27;20759;-58
2022/06/15 12:05:21;;;;;;;0.60;0.60;;;;;;;;;;5155740;27;20205;-58
2022/06/15 12:08:18;;;;;;;0.80;0.80;;;;;;;;;;5162179;27;20207;-58
2022/06/15 12:12:37;;;;;;;1.02;1.00;;;;;;;;;;5159289;27;20765;-58
2022/06/15 12:14:30;;;;;;;0.73;0.73;;;;;;;;;;5164495;27;20204;-57
2022/06/15 12:17:26;;;;;;;0.60;0.60;;;;;;;;;;5160500;27;20200;-57
2022/06/15 12:20:20;;;;;;;0.50;0.50;;;;;;;;;;5160161;27;20221;-58
2022/06/15 12:23:26;;;;;;;0.60;0.60;;;;;;;;;;5161325;27;20989;-59
2022/06/15 12:26:23;;;;;;;0.65;0.65;;;;;;;;;;5156490;27;20214;-58
2022/06/15 12:29:19;;;;;;;0.60;0.60;;;;;;;;;;5156454;27;20747;-59
2022/06/15 12:32:34;;;;;;;0.60;0.60;;;;;;;;;;5165314;27;20224;-57
2022/06/15 12:35:31;;;;;;;0.60;0.60;;;;;;;;;;5154276;27;20765;-58
2022/06/15 12:38:25;;;;;;;0.63;0.63;;;;;;;;;;5159021;27;20663;-57
2022/06/15 12:44:18;;;;;;;0.60;0.60;;;;;;;;;;5157799;27;20222;-58
2022/06/15 12:47:10;;;;;;;0.70;0.70;;;;;;;;;;5160594;27;20246;-57
2022/06/15 12:50:30;;;;;;;0.52;0.52;;;;;;;;;;5160782;27;20718;-58
2022/06/15 12:53:31;;;;;;;1.02;0.70;;;;;;;;;;5151879;27;20208;-57
2022/06/15 12:56:32;;;;;;;0.68;0.68;;;;;;;;;;5162195;27;20205;-57
2022/06/15 12:59:32;;;;;;;0.80;0.75;;;;;;;;;;5161901;27;20226;-57
2022/06/15 13:02:25;;;;;;;0.50;0.50;;;;;;;;;;5160739;27;20235;-57
2022/06/15 13:05:25;;;;;;;0.60;0.55;;;;;;;;;;5154559;27;20200;-57
2022/06/15 13:08:32;;;;;;;0.68;0.68;;;;;;;;;;5159905;27;20212;-57
2022/06/15 13:11:19;;;;;;;0.73;0.60;;;;;;;;;;5156595;27;20325;-57
2022/06/15 13:14:14;;;;;;;0.45;0.45;;;;;;;;;;5154357;27;20204;-58
2022/06/15 13:17:09;;;;;;;0.73;0.50;;;;;;;;;;5160500;27;20207;-57
2022/06/15 13:20:04;;;;;;;0.70;0.70;;;;;;;;;;5158107;27;20223;-57
2022/06/15 13:22:52;;;;;;;0.60;0.60;;;;;;;;;;5161706;27;20260;-59
2022/06/15 13:25:51;;;;;;;0.65;0.60;;;;;;;;;;5154802;27;20208;-61
2022/06/15 13:28:40;;;;;;;1.40;0.60;;;;;;;;;;5158662;27;20233;-57
2022/06/15 13:31:44;;;;;;;0.60;0.60;;;;;;;;;;5157956;27;20213;-57
2022/06/15 13:34:47;;;;;;;0.50;0.50;;;;;;;;;;5157761;27;20243;-57
2022/06/15 13:37:35;;;;;;;0.70;0.70;;;;;;;;;;5155796;27;20691;-57
2022/06/15 13:40:24;;;;;;;0.60;0.60;;;;;;;;;;5157341;27;20819;-57
2022/06/15 13:43:11;;;;;;;0.70;0.70;;;;;;;;;;5157668;27;20313;-57
2022/06/15 13:46:01;;;;;;;0.60;0.60;;;;;;;;;;5164165;27;20211;-57
2022/06/15 13:48:52;;;;;;;0.68;0.68;;;;;;;;;;5158599;27;20200;-57
2022/06/15 13:51:44;;;;;;;0.70;0.70;;;;;;;;;;5155548;27;20571;-58
2022/06/15 13:54:54;;;;;;;0.75;0.75;;;;;;;;;;5160294;27;20199;-58
2022/06/15 13:58:41;;;;;;;1.10;0.70;;;;;;;;;;5161519;27;20289;-58
2022/06/15 14:02:13;;;;;;;0.90;0.90;;;;;;;;;;5074344;28;20234;-58
2022/06/15 14:05:12;;;;;;;1.20;0.80;;;;;;;;;;5084820;27;20564;-57
2022/06/15 14:08:17;;;;;;;0.70;0.70;;;;;;;;;;5157332;27;20206;-57
2022/06/15 14:11:26;;;;;;;0.63;0.63;;;;;;;;;;5157308;27;20682;-58
2022/06/15 14:14:46;;;;;;;0.80;0.80;;;;;;;;;;5158462;27;20644;-58
2022/06/15 14:18:11;;;;;;;0.60;0.60;;;;;;;;;;5159420;27;20315;-57
2022/06/15 14:20:57;;;;;;;0.73;0.50;;;;;;;;;;5161357;27;20756;-58
2022/06/15 14:23:45;;;;;;;0.60;0.60;;;;;;;;;;5159388;27;20289;-57
2022/06/15 14:26:44;;;;;;;0.75;0.70;;;;;;;;;;5156801;27;20207;-58
2022/06/15 14:29:38;;;;;;;0.55;0.55;;;;;;;;;;5162135;27;20200;-58
2022/06/15 14:32:28;;;;;;;0.60;0.60;;;;;;;;;;5160908;27;20359;-57
2022/06/15 14:35:20;;;;;;;1.30;0.90;;;;;;;;;;5158814;27;20234;-57
2022/06/15 14:38:07;;;;;;;0.50;0.50;;;;;;;;;;5161849;27;20207;-57
2022/06/15 14:40:56;;;;;;;0.50;0.50;;;;;;;;;;5160612;27;20260;-58
2022/06/15 14:43:44;;;;;;;0.85;0.60;;;;;;;;;;5163632;27;20318;-58
2022/06/15 14:46:40;;;;;;;0.60;0.60;;;;;;;;;;5158504;27;20198;-58
2022/06/15 14:49:30;;;;;;;0.77;0.70;;;;;;;;;;5163872;27;20818;-57
2022/06/15 14:52:26;;;;;;;0.82;0.82;;;;;;;;;;5159847;27;20208;-59
2022/06/15 14:55:18;;;;;;;0.85;0.63;;;;;;;;;;5154881;27;20211;-58
2022/06/15 14:58:15;;;;;;;0.60;0.60;;;;;;;;;;5158536;27;20210;-58
2022/06/15 15:01:09;;;;;;;0.60;0.60;;;;;;;;;;5158316;27;20237;-58
2022/06/15 15:04:13;;;;;;;1.13;0.80;;;;;;;;;;5154580;27;20206;-58
2022/06/15 15:08:05;;;;;;;0.70;0.70;;;;;;;;;;5157649;27;20278;-58
2022/06/15 15:10:22;;;;;;;0.55;0.55;;;;;;;;;;5164726;27;20214;-59
2022/06/15 15:13:22;;;;;;;0.75;0.60;;;;;;;;;;5159338;27;20210;-58
2022/06/15 15:16:24;;;;;;;0.85;0.85;;;;;;;;;;5155542;27;20231;-57
2022/06/15 15:19:28;;;;;;;1.08;0.73;;;;;;;;;;5154311;27;20201;-57
2022/06/15 15:22:18;;;;;;;0.70;0.70;;;;;;;;;;5160051;27;20213;-57
2022/06/15 15:25:09;;;;;;;0.57;0.57;;;;;;;;;;5154647;27;20231;-57
2022/06/15 15:35:13;;;;;;;0.70;0.70;;;;;;;;;;5161418;27;20222;-58
2022/06/15 15:38:23;;;;;;;0.90;0.82;;;;;;;;;;5131444;27;20700;-57
2022/06/15 15:41:10;;;;;;;0.65;0.65;;;;;;;;;;5160041;27;20227;-58
2022/06/15 15:43:59;;;;;;;1.08;0.60;;;;;;;;;;5154418;27;20204;-57
2022/06/15 15:46:46;;;;;;;0.60;0.60;;;;;;;;;;5161366;27;20209;-58
2022/06/15 15:49:35;;;;;;;0.82;0.70;;;;;;;;;;5161549;27;20199;-57
2022/06/15 15:52:22;;;;;;;0.73;0.60;;;;;;;;;;5164189;27;20222;-57
2022/06/15 15:55:13;;;;;;;0.98;0.70;;;;;;;;;;5154474;27;20206;-58
2022/06/15 15:58:01;;;;;;;0.50;0.50;;;;;;;;;;5158210;27;20209;-57
2022/06/15 16:00:53;;;;;;;0.75;0.75;;;;;;;;;;5160315;27;20227;-57
2022/06/15 16:03:41;;;;;;;0.60;0.60;;;;;;;;;;5160130;27;20214;-57
2022/06/15 16:06:29;;;;;;;0.60;0.43;;;;;;;;;;5162760;27;20300;-57
2022/06/15 16:09:16;;;;;;;0.77;0.77;;;;;;;;;;5163652;27;20583;-57
2022/06/15 16:12:06;;;;;;;0.50;0.50;;;;;;;;;;5160882;27;20579;-57
2022/06/15 16:14:53;;;;;;;1.00;0.83;;;;;;;;;;5155280;27;20214;-59
2022/06/15 16:17:42;;;;;;;0.57;0.50;;;;;;;;;;5164080;27;20202;-56
2022/06/15 16:20:36;;;;;;;1.00;0.80;;;;;;;;;;5157525;27;20316;-58
2022/06/15 16:23:26;;;;;;;0.63;0.63;;;;;;;;;;5165493;27;20219;-57
2022/06/15 16:26:13;;;;;;;0.50;0.50;;;;;;;;;;5162912;27;20201;-57
2022/06/15 16:29:02;;;;;;;0.67;0.67;;;;;;;;;;5159473;27;20206;-58
2022/06/15 16:31:49;;;;;;;0.70;0.70;;;;;;;;;;5157150;27;20210;-56
2022/06/15 16:34:36;;;;;;;0.73;0.67;;;;;;;;;;5157463;27;20244;-57
2022/06/15 16:37:23;;;;;;;0.50;0.47;;;;;;;;;;5156481;27;20192;-57
2022/06/15 16:40:11;;;;;;;0.60;0.60;;;;;;;;;;5165106;27;20242;-58
2022/06/15 16:42:59;;;;;;;0.80;0.80;;;;;;;;;;5160242;27;20200;-57
2022/06/15 16:45:48;;;;;;;0.73;0.73;;;;;;;;;;5157556;27;20739;-57
2022/06/15 16:48:36;;;;;;;0.50;0.50;;;;;;;;;;5160732;27;20200;-57
2022/06/15 16:51:26;;;;;;;0.90;0.90;;;;;;;;;;5159520;27;20767;-58
2022/06/15 16:54:13;;;;;;;0.60;0.60;;;;;;;;;;5164611;27;20923;-57
2022/06/15 16:57:00;;;;;;;0.57;0.57;;;;;;;;;;5157979;27;20203;-57
2022/06/15 16:59:47;;;;;;;1.80;0.80;;;;;;;;;;5161164;27;20711;-66
2022/06/15 17:02:36;;;;;;;0.70;0.70;;;;;;;;;;5165349;27;20209;-57
2022/06/15 17:05:23;;;;;;;0.77;0.67;;;;;;;;;;5157270;27;20277;-57
2022/06/15 17:08:10;;;;;;;0.60;0.60;;;;;;;;;;5153737;27;20196;-57
2022/06/15 17:10:58;;;;;;;0.70;0.70;;;;;;;;;;5157448;27;20328;-58
2022/06/15 17:13:46;;;;;;;0.60;0.60;;;;;;;;;;5163031;27;20199;-57
2022/06/15 17:16:32;;;;;;;0.70;0.63;;;;;;;;;;5159114;27;20235;-57
2022/06/15 17:19:21;;;;;;;0.87;0.70;;;;;;;;;;5155859;27;20237;-58
2022/06/15 17:22:09;;;;;;;0.70;0.70;;;;;;;;;;5158061;27;20205;-57
2022/06/15 17:24:56;;;;;;;0.90;0.90;;;;;;;;;;5163952;27;20207;-57
2022/06/15 17:27:44;;;;;;;0.80;0.80;;;;;;;;;;5154834;27;20196;-57